sensor_id;sensor_type;location;lat;lon;timestamp;pressure;altitude;pressure_sealevel;temperature;humidity
47524;BME280;33253;42.144;25.884;2023-01-31T00:01:36;100110.94;;;-0.61;100.00
47524;BME280;33253;42.144;25.884;2023-01-31T00:04:05;100114.16;;;-0.52;100.00
47524;BME280;33253;42.144;25.884;2023-01-31T00:06:36;100121.22;;;-0.47;100.00
47524;BME280;33253;42.144;25.884;2023-01-31T00:09:04;100113.78;;;-0.56;100.00
47524;BME280;33253;42.144;25.884;2023-01-31T00:11:30;100121.88;;;-0.50;100.00
47524;BME280;33253;42.144;25.884;2023-01-31T00:14:00;99969.56;;;-1.43;100.00
47524;BME280;33253;42.144;25.884;2023-01-31T00:16:26;100121.00;;;-0.51;100.00
47524;BME280;33253;42.144;25.884;2023-01-31T00:18:52;100116.38;;;-0.44;100.00
47524;BME280;33253;42.144;25.884;2023-01-31T00:21:21;100094.88;;;-0.38;100.00
47524;BME280;33253;42.144;25.884;2023-01-31T00:23:48;100089.63;;;-0.29;100.00
47524;BME280;33253;42.144;25.884;2023-01-31T00:28:41;100096.81;;;-0.23;100.00
47524;BME280;33253;42.144;25.884;2023-01-31T00:31:08;100100.22;;;-0.23;100.00
47524;BME280;33253;42.144;25.884;2023-01-31T00:33:34;100111.25;;;-0.22;100.00
47524;BME280;33253;42.144;25.884;2023-01-31T00:36:05;100105.97;;;-0.13;100.00
47524;BME280;33253;42.144;25.884;2023-01-31T00:38:31;100104.31;;;-0.13;100.00
47524;BME280;33253;42.144;25.884;2023-01-31T00:40:57;100104.88;;;-0.17;100.00
47524;BME280;33253;42.144;25.884;2023-01-31T00:43:22;100109.28;;;-0.14;100.00
47524;BME280;33253;42.144;25.884;2023-01-31T00:45:48;100087.53;;;-0.23;100.00
47524;BME280;33253;42.144;25.884;2023-01-31T00:48:13;100086.75;;;-0.22;100.00
47524;BME280;33253;42.144;25.884;2023-01-31T00:50:39;100089.84;;;-0.26;100.00
47524;BME280;33253;42.144;25.884;2023-01-31T00:53:04;100097.47;;;-0.26;100.00
47524;BME280;33253;42.144;25.884;2023-01-31T00:55:30;100095.44;;;-0.30;100.00
47524;BME280;33253;42.144;25.884;2023-01-31T00:57:56;100097.31;;;-0.39;100.00
47524;BME280;33253;42.144;25.884;2023-01-31T01:00:21;100058.97;;;-0.78;100.00
47524;BME280;33253;42.144;25.884;2023-01-31T01:02:47;100082.63;;;-0.77;100.00
47524;BME280;33253;42.144;25.884;2023-01-31T01:05:12;100037.38;;;-1.07;100.00
47524;BME280;33253;42.144;25.884;2023-01-31T01:07:38;100063.47;;;-1.08;100.00
47524;BME280;33253;42.144;25.884;2023-01-31T01:10:05;100070.81;;;-1.11;100.00
47524;BME280;33253;42.144;25.884;2023-01-31T01:12:30;100065.88;;;-1.09;100.00
47524;BME280;33253;42.144;25.884;2023-01-31T01:14:56;100070.66;;;-1.02;100.00
47524;BME280;33253;42.144;25.884;2023-01-31T01:17:21;100062.75;;;-0.95;100.00
47524;BME280;33253;42.144;25.884;2023-01-31T01:19:46;100062.75;;;-0.95;100.00
47524;BME280;33253;42.144;25.884;2023-01-31T01:22:12;100050.81;;;-0.96;100.00
47524;BME280;33253;42.144;25.884;2023-01-31T01:24:41;100030.53;;;-1.08;100.00
47524;BME280;33253;42.144;25.884;2023-01-31T01:27:07;100060.91;;;-0.86;100.00
47524;BME280;33253;42.144;25.884;2023-01-31T01:29:32;100060.16;;;-0.85;100.00
47524;BME280;33253;42.144;25.884;2023-01-31T01:31:59;100064.56;;;-0.82;100.00
47524;BME280;33253;42.144;25.884;2023-01-31T01:34:25;100037.84;;;-0.89;100.00
47524;BME280;33253;42.144;25.884;2023-01-31T01:36:50;100009.41;;;-1.08;100.00
47524;BME280;33253;42.144;25.884;2023-01-31T01:39:16;100065.44;;;-0.82;100.00
47524;BME280;33253;42.144;25.884;2023-01-31T01:41:42;100058.91;;;-0.90;100.00
47524;BME280;33253;42.144;25.884;2023-01-31T01:47:37;100067.34;;;-1.01;100.00
47524;BME280;33253;42.144;25.884;2023-01-31T01:52:45;100068.75;;;-1.05;100.00
47524;BME280;33253;42.144;25.884;2023-01-31T01:55:27;100070.41;;;-1.05;100.00
47524;BME280;33253;42.144;25.884;2023-01-31T01:58:00;100060.16;;;-1.07;100.00
47524;BME280;33253;42.144;25.884;2023-01-31T02:00:29;100058.03;;;-1.12;100.00
47524;BME280;33253;42.144;25.884;2023-01-31T02:02:58;100018.69;;;-1.41;100.00
47524;BME280;33253;42.144;25.884;2023-01-31T02:05:30;100048.38;;;-1.28;100.00
47524;BME280;33253;42.144;25.884;2023-01-31T02:07:58;100066.34;;;-1.25;100.00
47524;BME280;33253;42.144;25.884;2023-01-31T02:10:35;100056.63;;;-1.31;100.00
47524;BME280;33253;42.144;25.884;2023-01-31T02:13:03;100065.59;;;-1.24;100.00
47524;BME280;33253;42.144;25.884;2023-01-31T02:15:29;100058.22;;;-1.21;100.00
47524;BME280;33253;42.144;25.884;2023-01-31T02:17:56;100051.25;;;-1.24;100.00
47524;BME280;33253;42.144;25.884;2023-01-31T02:28:53;100054.28;;;-1.18;100.00
47524;BME280;33253;42.144;25.884;2023-01-31T02:39:27;100064.22;;;-1.09;100.00
47524;BME280;33253;42.144;25.884;2023-01-31T02:42:25;100063.34;;;-1.09;100.00
47524;BME280;33253;42.144;25.884;2023-01-31T02:50:25;100075.53;;;-0.93;100.00
47524;BME280;33253;42.144;25.884;2023-01-31T02:53:06;100064.63;;;-0.92;100.00
47524;BME280;33253;42.144;25.884;2023-01-31T02:55:37;100073.47;;;-0.87;100.00
47524;BME280;33253;42.144;25.884;2023-01-31T02:58:26;100072.63;;;-0.76;100.00
47524;BME280;33253;42.144;25.884;2023-01-31T03:00:55;100053.13;;;-0.77;100.00
47524;BME280;33253;42.144;25.884;2023-01-31T03:03:26;100059.16;;;-0.75;100.00
47524;BME280;33253;42.144;25.884;2023-01-31T03:08:37;100049.81;;;-0.76;100.00
47524;BME280;33253;42.144;25.884;2023-01-31T03:11:05;100045.47;;;-0.89;100.00
47524;BME280;33253;42.144;25.884;2023-01-31T03:16:53;100051.66;;;-0.85;100.00
47524;BME280;33253;42.144;25.884;2023-01-31T03:22:12;100045.44;;;-1.01;100.00
47524;BME280;33253;42.144;25.884;2023-01-31T03:24:46;100049.19;;;-0.95;100.00
47524;BME280;33253;42.144;25.884;2023-01-31T03:27:14;100027.03;;;-0.98;100.00
47524;BME280;33253;42.144;25.884;2023-01-31T03:29:40;100051.25;;;-0.79;100.00
47524;BME280;33253;42.144;25.884;2023-01-31T03:32:24;100050.69;;;-0.75;100.00
47524;BME280;33253;42.144;25.884;2023-01-31T03:34:52;100056.63;;;-0.75;100.00
47524;BME280;33253;42.144;25.884;2023-01-31T03:37:40;100045.88;;;-0.72;100.00
47524;BME280;33253;42.144;25.884;2023-01-31T03:45:27;100042.44;;;-0.73;100.00
47524;BME280;33253;42.144;25.884;2023-01-31T03:47:58;100037.25;;;-0.74;100.00
47524;BME280;33253;42.144;25.884;2023-01-31T03:50:30;100050.22;;;-0.82;100.00
47524;BME280;33253;42.144;25.884;2023-01-31T03:55:59;100041.16;;;-0.90;100.00
47524;BME280;33253;42.144;25.884;2023-01-31T03:58:30;100042.72;;;-0.92;100.00
47524;BME280;33253;42.144;25.884;2023-01-31T04:01:00;100041.28;;;-0.88;100.00
47524;BME280;33253;42.144;25.884;2023-01-31T04:03:39;100021.06;;;-0.99;100.00
47524;BME280;33253;42.144;25.884;2023-01-31T04:06:08;100030.56;;;-0.96;100.00
47524;BME280;33253;42.144;25.884;2023-01-31T04:08:33;100039.28;;;-0.92;100.00
47524;BME280;33253;42.144;25.884;2023-01-31T04:11:03;100036.53;;;-0.95;100.00
47524;BME280;33253;42.144;25.884;2023-01-31T04:13:29;100020.75;;;-1.03;100.00
47524;BME280;33253;42.144;25.884;2023-01-31T04:15:55;100037.09;;;-0.88;100.00
47524;BME280;33253;42.144;25.884;2023-01-31T04:18:21;100035.69;;;-0.84;100.00
47524;BME280;33253;42.144;25.884;2023-01-31T04:20:46;100045.16;;;-0.82;100.00
47524;BME280;33253;42.144;25.884;2023-01-31T04:23:11;100045.16;;;-0.82;100.00
47524;BME280;33253;42.144;25.884;2023-01-31T04:25:37;100025.75;;;-0.93;100.00
47524;BME280;33253;42.144;25.884;2023-01-31T04:28:02;100041.50;;;-0.85;100.00
47524;BME280;33253;42.144;25.884;2023-01-31T04:30:28;100050.34;;;-0.80;100.00
47524;BME280;33253;42.144;25.884;2023-01-31T04:32:54;100052.47;;;-0.74;100.00
47524;BME280;33253;42.144;25.884;2023-01-31T04:35:19;100053.47;;;-0.72;100.00
47524;BME280;33253;42.144;25.884;2023-01-31T04:37:44;100047.84;;;-0.68;100.00
47524;BME280;33253;42.144;25.884;2023-01-31T04:40:10;100053.81;;;-0.68;100.00
47524;BME280;33253;42.144;25.884;2023-01-31T04:42:38;100056.59;;;-0.64;100.00
47524;BME280;33253;42.144;25.884;2023-01-31T04:45:04;100062.22;;;-0.57;100.00
47524;BME280;33253;42.144;25.884;2023-01-31T04:47:30;100052.63;;;-0.61;100.00
47524;BME280;33253;42.144;25.884;2023-01-31T04:49:55;100056.91;;;-0.60;100.00
47524;BME280;33253;42.144;25.884;2023-01-31T04:52:20;100060.13;;;-0.51;100.00
47524;BME280;33253;42.144;25.884;2023-01-31T04:54:48;100065.41;;;-0.47;100.00
47524;BME280;33253;42.144;25.884;2023-01-31T04:57:14;100067.09;;;-0.48;100.00
47524;BME280;33253;42.144;25.884;2023-01-31T04:59:39;100060.25;;;-0.49;100.00
47524;BME280;33253;42.144;25.884;2023-01-31T05:02:04;100071.75;;;-0.42;100.00
47524;BME280;33253;42.144;25.884;2023-01-31T05:04:30;100055.31;;;-0.36;100.00
47524;BME280;33253;42.144;25.884;2023-01-31T05:06:55;100055.97;;;-0.38;100.00
47524;BME280;33253;42.144;25.884;2023-01-31T05:09:21;100046.16;;;-0.45;100.00
47524;BME280;33253;42.144;25.884;2023-01-31T05:11:47;100061.81;;;-0.39;100.00
47524;BME280;33253;42.144;25.884;2023-01-31T05:14:13;100068.22;;;-0.33;100.00
47524;BME280;33253;42.144;25.884;2023-01-31T05:16:39;100075.84;;;-0.21;100.00
47524;BME280;33253;42.144;25.884;2023-01-31T05:19:05;100066.91;;;-0.15;100.00
47524;BME280;33253;42.144;25.884;2023-01-31T05:21:31;100065.19;;;-0.05;100.00
47524;BME280;33253;42.144;25.884;2023-01-31T05:24:16;100062.06;;;-0.01;100.00
47524;BME280;33253;42.144;25.884;2023-01-31T05:26:41;100066.72;;;0.05;100.00
47524;BME280;33253;42.144;25.884;2023-01-31T05:29:07;100063.84;;;0.01;100.00
47524;BME280;33253;42.144;25.884;2023-01-31T05:31:32;100078.75;;;0.08;100.00
47524;BME280;33253;42.144;25.884;2023-01-31T05:33:58;100082.94;;;0.07;100.00
47524;BME280;33253;42.144;25.884;2023-01-31T05:36:23;100090.22;;;0.03;100.00
47524;BME280;33253;42.144;25.884;2023-01-31T05:38:49;100086.75;;;-0.22;100.00
47524;BME280;33253;42.144;25.884;2023-01-31T05:41:14;100087.66;;;-0.21;100.00
47524;BME280;33253;42.144;25.884;2023-01-31T05:43:40;100089.31;;;-0.22;100.00
47524;BME280;33253;42.144;25.884;2023-01-31T05:46:05;100089.09;;;-0.13;100.00
47524;BME280;33253;42.144;25.884;2023-01-31T05:48:31;100103.13;;;-0.06;100.00
47524;BME280;33253;42.144;25.884;2023-01-31T05:50:56;100099.28;;;-0.01;100.00
47524;BME280;33253;42.144;25.884;2023-01-31T05:53:22;100091.41;;;-0.16;100.00
47524;BME280;33253;42.144;25.884;2023-01-31T05:55:47;100068.00;;;-0.24;100.00
47524;BME280;33253;42.144;25.884;2023-01-31T05:58:14;100080.63;;;-0.13;100.00
47524;BME280;33253;42.144;25.884;2023-01-31T06:00:40;100105.09;;;-0.14;100.00
47524;BME280;33253;42.144;25.884;2023-01-31T06:03:05;100068.09;;;-0.46;100.00
47524;BME280;33253;42.144;25.884;2023-01-31T06:05:31;100110.59;;;-0.20;100.00
47524;BME280;33253;42.144;25.884;2023-01-31T06:07:56;100118.13;;;-0.21;100.00
47524;BME280;33253;42.144;25.884;2023-01-31T06:10:22;100129.22;;;-0.19;100.00
47524;BME280;33253;42.144;25.884;2023-01-31T06:12:47;100118.63;;;-0.25;100.00
47524;BME280;33253;42.144;25.884;2023-01-31T06:15:13;100111.34;;;-0.33;100.00
47524;BME280;33253;42.144;25.884;2023-01-31T06:17:39;100096.94;;;-0.56;100.00
47524;BME280;33253;42.144;25.884;2023-01-31T06:20:04;100116.22;;;-0.58;100.00
47524;BME280;33253;42.144;25.884;2023-01-31T06:22:30;100129.19;;;-0.43;100.00
47524;BME280;33253;42.144;25.884;2023-01-31T06:24:55;100120.22;;;-0.50;100.00
47524;BME280;33253;42.144;25.884;2023-01-31T06:27:21;100129.91;;;-0.56;100.00
47524;BME280;33253;42.144;25.884;2023-01-31T06:29:46;100132.81;;;-0.51;100.00
47524;BME280;33253;42.144;25.884;2023-01-31T06:32:11;100138.97;;;-0.47;100.00
47524;BME280;33253;42.144;25.884;2023-01-31T06:34:37;100139.03;;;-0.36;100.00
47524;BME280;33253;42.144;25.884;2023-01-31T06:37:02;100143.66;;;-0.30;100.00
47524;BME280;33253;42.144;25.884;2023-01-31T06:39:28;100104.00;;;-0.52;100.00
47524;BME280;33253;42.144;25.884;2023-01-31T06:41:53;100095.94;;;-0.58;100.00
47524;BME280;33253;42.144;25.884;2023-01-31T06:44:19;100155.81;;;-0.26;100.00
47524;BME280;33253;42.144;25.884;2023-01-31T06:46:44;100118.88;;;-0.56;100.00
47524;BME280;33253;42.144;25.884;2023-01-31T06:49:09;100140.22;;;-0.42;100.00
47524;BME280;33253;42.144;25.884;2023-01-31T06:51:35;100155.34;;;-0.32;100.00
47524;BME280;33253;42.144;25.884;2023-01-31T06:54:00;100163.31;;;-0.27;100.00
47524;BME280;33253;42.144;25.884;2023-01-31T06:56:26;100159.00;;;-0.28;100.00
47524;BME280;33253;42.144;25.884;2023-01-31T06:58:51;100177.34;;;-0.21;100.00
47524;BME280;33253;42.144;25.884;2023-01-31T07:01:17;100163.44;;;-0.26;100.00
47524;BME280;33253;42.144;25.884;2023-01-31T07:03:42;100164.75;;;-0.31;100.00
47524;BME280;33253;42.144;25.884;2023-01-31T07:06:09;100175.56;;;-0.22;100.00
47524;BME280;33253;42.144;25.884;2023-01-31T07:08:35;100162.88;;;-0.22;100.00
47524;BME280;33253;42.144;25.884;2023-01-31T07:11:01;100180.63;;;-0.22;100.00
47524;BME280;33253;42.144;25.884;2023-01-31T07:13:27;100168.50;;;-0.26;100.00
47524;BME280;33253;42.144;25.884;2023-01-31T07:15:53;100152.09;;;-0.41;100.00
47524;BME280;33253;42.144;25.884;2023-01-31T07:18:19;100182.97;;;-0.25;100.00
47524;BME280;33253;42.144;25.884;2023-01-31T07:20:45;100155.66;;;-0.39;100.00
47524;BME280;33253;42.144;25.884;2023-01-31T07:23:11;100190.56;;;-0.25;100.00
47524;BME280;33253;42.144;25.884;2023-01-31T07:25:36;100202.91;;;-0.18;100.00
47524;BME280;33253;42.144;25.884;2023-01-31T07:28:02;100192.91;;;-0.16;100.00
47524;BME280;33253;42.144;25.884;2023-01-31T07:30:28;100196.88;;;-0.20;100.00
47524;BME280;33253;42.144;25.884;2023-01-31T07:32:54;100187.47;;;-0.21;100.00
47524;BME280;33253;42.144;25.884;2023-01-31T07:35:20;100183.72;;;-0.26;100.00
47524;BME280;33253;42.144;25.884;2023-01-31T07:37:45;100184.59;;;-0.25;100.00
47524;BME280;33253;42.144;25.884;2023-01-31T07:40:13;100197.97;;;-0.16;100.00
47524;BME280;33253;42.144;25.884;2023-01-31T07:42:39;100206.63;;;-0.02;100.00
47524;BME280;33253;42.144;25.884;2023-01-31T07:45:06;100203.44;;;0.01;100.00
47524;BME280;33253;42.144;25.884;2023-01-31T07:47:32;100188.56;;;0.05;100.00
47524;BME280;33253;42.144;25.884;2023-01-31T07:49:58;100178.50;;;0.07;100.00
47524;BME280;33253;42.144;25.884;2023-01-31T07:52:23;100179.63;;;0.10;100.00
47524;BME280;33253;42.144;25.884;2023-01-31T07:54:49;100195.41;;;0.18;100.00
47524;BME280;33253;42.144;25.884;2023-01-31T07:57:14;100149.88;;;-0.03;100.00
47524;BME280;33253;42.144;25.884;2023-01-31T07:59:42;100210.22;;;0.36;100.00
47524;BME280;33253;42.144;25.884;2023-01-31T08:02:11;100213.78;;;0.38;100.00
47524;BME280;33253;42.144;25.884;2023-01-31T08:04:55;100183.41;;;0.39;100.00
47524;BME280;33253;42.144;25.884;2023-01-31T08:07:21;100216.97;;;0.71;100.00
47524;BME280;33253;42.144;25.884;2023-01-31T08:09:46;100211.25;;;0.73;100.00
47524;BME280;33253;42.144;25.884;2023-01-31T08:12:14;100158.34;;;0.56;100.00
47524;BME280;33253;42.144;25.884;2023-01-31T08:14:42;100198.06;;;0.91;100.00
47524;BME280;33253;42.144;25.884;2023-01-31T08:17:07;100194.88;;;0.93;100.00
47524;BME280;33253;42.144;25.884;2023-01-31T08:19:34;100214.09;;;1.02;100.00
47524;BME280;33253;42.144;25.884;2023-01-31T08:22:00;100213.09;;;1.11;100.00
47524;BME280;33253;42.144;25.884;2023-01-31T08:24:25;100220.59;;;1.22;100.00
47524;BME280;33253;42.144;25.884;2023-01-31T08:26:51;100212.63;;;1.17;100.00
47524;BME280;33253;42.144;25.884;2023-01-31T08:29:16;100215.72;;;1.13;100.00
47524;BME280;33253;42.144;25.884;2023-01-31T08:31:42;100214.88;;;1.12;100.00
47524;BME280;33253;42.144;25.884;2023-01-31T08:34:07;100220.72;;;1.11;100.00
47524;BME280;33253;42.144;25.884;2023-01-31T08:36:33;100220.38;;;1.19;100.00
47524;BME280;33253;42.144;25.884;2023-01-31T08:39:00;100217.72;;;1.17;100.00
47524;BME280;33253;42.144;25.884;2023-01-31T08:41:27;100222.69;;;1.27;100.00
47524;BME280;33253;42.144;25.884;2023-01-31T08:43:53;100214.59;;;1.33;100.00
47524;BME280;33253;42.144;25.884;2023-01-31T08:46:20;100212.47;;;1.39;100.00
47524;BME280;33253;42.144;25.884;2023-01-31T08:48:46;100209.47;;;1.45;100.00
47524;BME280;33253;42.144;25.884;2023-01-31T08:51:13;100216.09;;;1.55;100.00
47524;BME280;33253;42.144;25.884;2023-01-31T08:53:40;100225.13;;;1.63;100.00
47524;BME280;33253;42.144;25.884;2023-01-31T08:56:07;100221.22;;;1.68;100.00
47524;BME280;33253;42.144;25.884;2023-01-31T08:58:36;100233.59;;;1.75;100.00
47524;BME280;33253;42.144;25.884;2023-01-31T09:01:06;100232.38;;;1.82;100.00
47524;BME280;33253;42.144;25.884;2023-01-31T09:03:32;100225.25;;;1.90;100.00
47524;BME280;33253;42.144;25.884;2023-01-31T09:06:01;100225.75;;;1.98;100.00
47524;BME280;33253;42.144;25.884;2023-01-31T09:08:28;100188.09;;;1.80;100.00
47524;BME280;33253;42.144;25.884;2023-01-31T09:10:56;100226.38;;;2.07;100.00
47524;BME280;33253;42.144;25.884;2023-01-31T09:13:23;100215.53;;;2.09;100.00
47524;BME280;33253;42.144;25.884;2023-01-31T09:16:06;100220.03;;;2.14;100.00
47524;BME280;33253;42.144;25.884;2023-01-31T09:18:33;100226.53;;;2.35;100.00
47524;BME280;33253;42.144;25.884;2023-01-31T09:21:11;100222.34;;;2.36;100.00
47524;BME280;33253;42.144;25.884;2023-01-31T09:23:38;100174.19;;;2.14;100.00
47524;BME280;33253;42.144;25.884;2023-01-31T09:26:03;100221.28;;;2.46;100.00
47524;BME280;33253;42.144;25.884;2023-01-31T09:28:29;100226.16;;;2.42;100.00
47524;BME280;33253;42.144;25.884;2023-01-31T09:30:54;100222.63;;;2.54;100.00
47524;BME280;33253;42.144;25.884;2023-01-31T09:33:40;100211.88;;;2.58;100.00
47524;BME280;33253;42.144;25.884;2023-01-31T09:36:08;100219.94;;;2.64;100.00
47524;BME280;33253;42.144;25.884;2023-01-31T09:38:34;100214.44;;;2.58;100.00
47524;BME280;33253;42.144;25.884;2023-01-31T09:41:11;100171.97;;;2.45;100.00
47524;BME280;33253;42.144;25.884;2023-01-31T09:43:40;100204.44;;;2.74;100.00
47524;BME280;33253;42.144;25.884;2023-01-31T09:46:14;100204.22;;;2.71;100.00
47524;BME280;33253;42.144;25.884;2023-01-31T09:48:43;100203.84;;;2.79;100.00
47524;BME280;33253;42.144;25.884;2023-01-31T09:51:12;100163.47;;;2.58;100.00
47524;BME280;33253;42.144;25.884;2023-01-31T09:53:38;100202.66;;;2.87;100.00
47524;BME280;33253;42.144;25.884;2023-01-31T09:58:55;100180.19;;;2.95;100.00
47524;BME280;33253;42.144;25.884;2023-01-31T10:01:48;100188.00;;;3.11;100.00
47524;BME280;33253;42.144;25.884;2023-01-31T10:07:26;100167.81;;;3.01;100.00
47524;BME280;33253;42.144;25.884;2023-01-31T10:10:04;100176.78;;;3.22;100.00
47524;BME280;33253;42.144;25.884;2023-01-31T10:13:02;100184.75;;;3.27;100.00
47524;BME280;33253;42.144;25.884;2023-01-31T10:15:42;100177.00;;;3.26;100.00
47524;BME280;33253;42.144;25.884;2023-01-31T10:18:17;100137.50;;;3.05;100.00
47524;BME280;33253;42.144;25.884;2023-01-31T10:20:52;100187.06;;;3.37;100.00
47524;BME280;33253;42.144;25.884;2023-01-31T10:23:29;100187.81;;;3.50;100.00
47524;BME280;33253;42.144;25.884;2023-01-31T10:26:00;100140.28;;;3.23;100.00
47524;BME280;33253;42.144;25.884;2023-01-31T10:28:40;100184.31;;;3.48;100.00
47524;BME280;33253;42.144;25.884;2023-01-31T10:34:12;100184.22;;;3.61;100.00
47524;BME280;33253;42.144;25.884;2023-01-31T10:36:50;100175.38;;;3.69;100.00
47524;BME280;33253;42.144;25.884;2023-01-31T10:39:28;100167.31;;;3.92;100.00
47524;BME280;33253;42.144;25.884;2023-01-31T10:42:11;100169.25;;;4.11;100.00
47524;BME280;33253;42.144;25.884;2023-01-31T10:44:58;100167.75;;;4.14;100.00
47524;BME280;33253;42.144;25.884;2023-01-31T10:47:32;100163.78;;;4.19;100.00
47524;BME280;33253;42.144;25.884;2023-01-31T10:49:57;100158.53;;;4.31;100.00
47524;BME280;33253;42.144;25.884;2023-01-31T10:52:39;100151.81;;;4.33;100.00
47524;BME280;33253;42.144;25.884;2023-01-31T10:55:29;100154.13;;;4.29;100.00
47524;BME280;33253;42.144;25.884;2023-01-31T10:57:58;100160.63;;;4.24;100.00
47524;BME280;33253;42.144;25.884;2023-01-31T11:00:27;100143.69;;;4.41;100.00
47524;BME280;33253;42.144;25.884;2023-01-31T11:02:53;100145.84;;;4.64;99.90
47524;BME280;33253;42.144;25.884;2023-01-31T11:05:21;100145.06;;;4.97;100.00
47524;BME280;33253;42.144;25.884;2023-01-31T11:07:48;100139.09;;;5.13;100.00
47524;BME280;33253;42.144;25.884;2023-01-31T11:10:28;100135.56;;;5.11;97.33
47524;BME280;33253;42.144;25.884;2023-01-31T11:13:02;100139.06;;;4.96;97.23
47524;BME280;33253;42.144;25.884;2023-01-31T11:15:35;100122.97;;;4.82;96.22
47524;BME280;33253;42.144;25.884;2023-01-31T11:18:03;100125.94;;;4.90;nan
47524;BME280;33253;42.144;25.884;2023-01-31T11:20:32;100149.31;;;5.13;95.26
47524;BME280;33253;42.144;25.884;2023-01-31T11:23:00;100136.06;;;5.04;94.43
47524;BME280;33253;42.144;25.884;2023-01-31T11:25:28;100136.06;;;5.04;95.22
47524;BME280;33253;42.144;25.884;2023-01-31T11:28:00;100140.00;;;4.98;97.34
47524;BME280;33253;42.144;25.884;2023-01-31T11:30:31;100116.19;;;4.83;100.00
47524;BME280;33253;42.144;25.884;2023-01-31T11:32:59;100111.75;;;4.64;99.79
47524;BME280;33253;42.144;25.884;2023-01-31T11:35:27;100152.50;;;4.92;100.00
47524;BME280;33253;42.144;25.884;2023-01-31T11:40:30;100142.72;;;4.85;100.00
47524;BME280;33253;42.144;25.884;2023-01-31T11:42:59;100153.13;;;4.88;100.00
47524;BME280;33253;42.144;25.884;2023-01-31T11:45:37;100132.56;;;4.86;100.00
47524;BME280;33253;42.144;25.884;2023-01-31T11:48:18;100130.88;;;4.87;98.40
47524;BME280;33253;42.144;25.884;2023-01-31T11:50:57;100133.16;;;4.97;100.00
47524;BME280;33253;42.144;25.884;2023-01-31T11:56:13;100125.06;;;4.90;96.94
47524;BME280;33253;42.144;25.884;2023-01-31T11:58:39;100099.91;;;4.66;95.44
47524;BME280;33253;42.144;25.884;2023-01-31T12:01:13;100141.16;;;4.72;96.82
47524;BME280;33253;42.144;25.884;2023-01-31T12:03:57;100121.94;;;4.79;96.23
47524;BME280;33253;42.144;25.884;2023-01-31T12:06:36;100137.28;;;4.79;94.72
47524;BME280;33253;42.144;25.884;2023-01-31T12:09:20;100143.34;;;4.81;94.50
47524;BME280;33253;42.144;25.884;2023-01-31T12:11:59;100144.16;;;4.80;96.42
47524;BME280;33253;42.144;25.884;2023-01-31T12:14:36;100132.34;;;4.67;97.82
47524;BME280;33253;42.144;25.884;2023-01-31T12:17:03;100117.66;;;4.63;97.89
47524;BME280;33253;42.144;25.884;2023-01-31T12:19:40;100079.31;;;4.31;95.28
47524;BME280;33253;42.144;25.884;2023-01-31T12:31:00;100147.78;;;4.68;97.46
47524;BME280;33253;42.144;25.884;2023-01-31T12:36:48;100142.06;;;4.73;98.58
47524;BME280;33253;42.144;25.884;2023-01-31T12:50:48;100151.84;;;4.80;97.54
47524;BME280;33253;42.144;25.884;2023-01-31T12:53:32;100155.97;;;4.78;98.81
47524;BME280;33253;42.144;25.884;2023-01-31T13:07:15;100145.66;;;4.76;99.63
47524;BME280;33253;42.144;25.884;2023-01-31T13:09:45;100145.28;;;4.85;100.00
47524;BME280;33253;42.144;25.884;2023-01-31T13:12:22;100133.59;;;4.74;99.58
47524;BME280;33253;42.144;25.884;2023-01-31T13:15:13;100158.63;;;4.96;100.00
47524;BME280;33253;42.144;25.884;2023-01-31T13:17:41;100163.34;;;4.88;98.62
47524;BME280;33253;42.144;25.884;2023-01-31T13:22:45;100166.44;;;4.97;100.00
47524;BME280;33253;42.144;25.884;2023-01-31T13:25:23;100089.00;;;4.53;98.19
47524;BME280;33253;42.144;25.884;2023-01-31T13:27:59;100162.09;;;4.96;97.59
47524;BME280;33253;42.144;25.884;2023-01-31T13:30:34;100173.88;;;5.09;95.84
47524;BME280;33253;42.144;25.884;2023-01-31T13:38:24;100166.31;;;4.96;95.58
47524;BME280;33253;42.144;25.884;2023-01-31T13:40:53;100139.19;;;4.83;95.73
47524;BME280;33253;42.144;25.884;2023-01-31T13:43:20;100171.06;;;5.05;95.47
47524;BME280;33253;42.144;25.884;2023-01-31T13:45:54;100165.06;;;5.04;93.56
47524;BME280;33253;42.144;25.884;2023-01-31T13:48:25;100171.78;;;5.02;95.12
47524;BME280;33253;42.144;25.884;2023-01-31T13:50:58;100166.31;;;4.96;95.98
47524;BME280;33253;42.144;25.884;2023-01-31T13:53:35;100143.63;;;4.70;95.37
47524;BME280;33253;42.144;25.884;2023-01-31T13:56:09;100164.81;;;4.99;96.56
47524;BME280;33253;42.144;25.884;2023-01-31T13:58:38;100129.44;;;4.76;94.79
47524;BME280;33253;42.144;25.884;2023-01-31T14:01:16;100161.91;;;4.93;95.15
47524;BME280;33253;42.144;25.884;2023-01-31T14:09:36;100167.22;;;4.96;95.51
47524;BME280;33253;42.144;25.884;2023-01-31T14:14:39;100174.88;;;4.96;96.77
47524;BME280;33253;42.144;25.884;2023-01-31T14:22:43;100185.56;;;4.89;99.72
47524;BME280;33253;42.144;25.884;2023-01-31T14:25:15;100176.44;;;4.78;99.67
47524;BME280;33253;42.144;25.884;2023-01-31T14:35:57;100137.72;;;4.25;100.00
47524;BME280;33253;42.144;25.884;2023-01-31T14:44:16;100200.28;;;4.32;100.00
47524;BME280;33253;42.144;25.884;2023-01-31T14:58:19;100218.59;;;4.40;100.00
47524;BME280;33253;42.144;25.884;2023-01-31T15:00:55;100218.88;;;4.44;100.00
47524;BME280;33253;42.144;25.884;2023-01-31T15:03:27;100221.78;;;4.50;99.02
47524;BME280;33253;42.144;25.884;2023-01-31T15:06:04;100223.47;;;4.50;98.64
47524;BME280;33253;42.144;25.884;2023-01-31T15:08:36;100226.38;;;4.56;99.88
47524;BME280;33253;42.144;25.884;2023-01-31T15:11:10;100239.31;;;4.44;99.58